sensor_id;sensor_type;location;lat;lon;timestamp;temperature;humidity
35635;DHT22;21757;43.610;1.440;2023-02-15T00:00:11;9.10;99.90
35635;DHT22;21757;43.610;1.440;2023-02-15T00:02:37;9.10;99.90
35635;DHT22;21757;43.610;1.440;2023-02-15T00:05:03;9.10;99.90
35635;DHT22;21757;43.610;1.440;2023-02-15T00:07:29;9.10;99.90
35635;DHT22;21757;43.610;1.440;2023-02-15T00:09:55;9.10;99.90
35635;DHT22;21757;43.610;1.440;2023-02-15T00:12:20;9.10;99.90
35635;DHT22;21757;43.610;1.440;2023-02-15T00:14:47;9.20;99.90
35635;DHT22;21757;43.610;1.440;2023-02-15T00:17:13;9.10;99.90
35635;DHT22;21757;43.610;1.440;2023-02-15T00:19:39;9.10;99.90
35635;DHT22;21757;43.610;1.440;2023-02-15T00:22:05;9.00;99.90
35635;DHT22;21757;43.610;1.440;2023-02-15T00:24:31;9.00;99.90
35635;DHT22;21757;43.610;1.440;2023-02-15T00:26:57;9.00;99.90
35635;DHT22;21757;43.610;1.440;2023-02-15T00:29:23;9.10;99.90
35635;DHT22;21757;43.610;1.440;2023-02-15T00:31:49;9.00;99.90
35635;DHT22;21757;43.610;1.440;2023-02-15T00:34:20;9.00;99.90
35635;DHT22;21757;43.610;1.440;2023-02-15T00:36:47;9.00;99.90
35635;DHT22;21757;43.610;1.440;2023-02-15T00:39:13;9.10;99.90
35635;DHT22;21757;43.610;1.440;2023-02-15T00:41:39;9.00;99.90
35635;DHT22;21757;43.610;1.440;2023-02-15T00:44:06;9.10;99.90
35635;DHT22;21757;43.610;1.440;2023-02-15T00:46:32;9.10;99.90
35635;DHT22;21757;43.610;1.440;2023-02-15T00:48:58;9.00;99.90
35635;DHT22;21757;43.610;1.440;2023-02-15T00:51:24;9.00;99.90
35635;DHT22;21757;43.610;1.440;2023-02-15T00:53:49;9.00;99.90
35635;DHT22;21757;43.610;1.440;2023-02-15T00:56:15;9.00;99.90
35635;DHT22;21757;43.610;1.440;2023-02-15T00:58:41;9.00;99.90
35635;DHT22;21757;43.610;1.440;2023-02-15T01:01:10;9.10;99.90
35635;DHT22;21757;43.610;1.440;2023-02-15T01:03:36;9.00;99.90
35635;DHT22;21757;43.610;1.440;2023-02-15T01:06:03;9.00;99.90
35635;DHT22;21757;43.610;1.440;2023-02-15T01:08:29;9.00;99.90
35635;DHT22;21757;43.610;1.440;2023-02-15T01:10:55;9.10;99.90
35635;DHT22;21757;43.610;1.440;2023-02-15T01:13:22;9.00;99.90
35635;DHT22;21757;43.610;1.440;2023-02-15T01:15:54;9.00;99.90
35635;DHT22;21757;43.610;1.440;2023-02-15T01:18:20;9.00;99.90
35635;DHT22;21757;43.610;1.440;2023-02-15T01:20:46;9.00;99.90
35635;DHT22;21757;43.610;1.440;2023-02-15T01:23:13;9.00;99.90
35635;DHT22;21757;43.610;1.440;2023-02-15T01:25:39;9.00;99.90
35635;DHT22;21757;43.610;1.440;2023-02-15T01:28:05;8.90;99.90
35635;DHT22;21757;43.610;1.440;2023-02-15T01:30:31;9.00;99.90
35635;DHT22;21757;43.610;1.440;2023-02-15T01:32:57;9.00;99.90
35635;DHT22;21757;43.610;1.440;2023-02-15T01:35:23;9.00;99.90
35635;DHT22;21757;43.610;1.440;2023-02-15T01:37:48;9.00;99.90
35635;DHT22;21757;43.610;1.440;2023-02-15T01:40:16;8.90;99.90
35635;DHT22;21757;43.610;1.440;2023-02-15T01:42:42;9.00;99.90
35635;DHT22;21757;43.610;1.440;2023-02-15T01:45:30;8.90;99.90
35635;DHT22;21757;43.610;1.440;2023-02-15T01:48:05;8.90;99.90
35635;DHT22;21757;43.610;1.440;2023-02-15T01:50:40;8.90;99.90
35635;DHT22;21757;43.610;1.440;2023-02-15T01:55:47;8.90;99.90
35635;DHT22;21757;43.610;1.440;2023-02-15T01:58:14;8.90;99.90
35635;DHT22;21757;43.610;1.440;2023-02-15T02:00:41;8.90;99.90
35635;DHT22;21757;43.610;1.440;2023-02-15T02:03:07;8.90;99.90
35635;DHT22;21757;43.610;1.440;2023-02-15T02:05:33;8.90;99.90
35635;DHT22;21757;43.610;1.440;2023-02-15T02:08:01;8.90;99.90
35635;DHT22;21757;43.610;1.440;2023-02-15T02:10:27;8.90;99.90
35635;DHT22;21757;43.610;1.440;2023-02-15T02:12:56;8.90;99.90
35635;DHT22;21757;43.610;1.440;2023-02-15T02:15:47;8.80;99.90
35635;DHT22;21757;43.610;1.440;2023-02-15T02:32:20;8.90;99.90
35635;DHT22;21757;43.610;1.440;2023-02-15T02:37:27;8.90;99.90
35635;DHT22;21757;43.610;1.440;2023-02-15T02:42:41;8.80;99.90
35635;DHT22;21757;43.610;1.440;2023-02-15T02:45:21;8.80;99.90
35635;DHT22;21757;43.610;1.440;2023-02-15T02:47:56;8.80;99.90
35635;DHT22;21757;43.610;1.440;2023-02-15T02:50:27;8.80;99.90
35635;DHT22;21757;43.610;1.440;2023-02-15T02:52:55;8.80;99.90
35635;DHT22;21757;43.610;1.440;2023-02-15T02:55:31;8.80;99.90
35635;DHT22;21757;43.610;1.440;2023-02-15T03:00:40;8.80;99.90
35635;DHT22;21757;43.610;1.440;2023-02-15T03:03:21;8.80;99.90
35635;DHT22;21757;43.610;1.440;2023-02-15T03:05:57;8.80;99.90
35635;DHT22;21757;43.610;1.440;2023-02-15T03:08:28;8.80;99.90
35635;DHT22;21757;43.610;1.440;2023-02-15T03:10:58;8.80;99.90
35635;DHT22;21757;43.610;1.440;2023-02-15T03:13:25;8.80;99.90
35635;DHT22;21757;43.610;1.440;2023-02-15T03:15:52;8.70;99.90
35635;DHT22;21757;43.610;1.440;2023-02-15T03:18:46;8.70;99.90
35635;DHT22;21757;43.610;1.440;2023-02-15T03:21:21;8.70;99.90
35635;DHT22;21757;43.610;1.440;2023-02-15T03:24:00;8.70;99.90
35635;DHT22;21757;43.610;1.440;2023-02-15T03:26:27;8.70;99.90
35635;DHT22;21757;43.610;1.440;2023-02-15T03:28:55;8.60;99.90
35635;DHT22;21757;43.610;1.440;2023-02-15T03:31:24;8.60;99.90
35635;DHT22;21757;43.610;1.440;2023-02-15T03:34:02;8.70;99.90
35635;DHT22;21757;43.610;1.440;2023-02-15T03:36:50;8.70;99.90
35635;DHT22;21757;43.610;1.440;2023-02-15T03:44:33;8.60;99.90
35635;DHT22;21757;43.610;1.440;2023-02-15T03:47:06;8.50;99.90
35635;DHT22;21757;43.610;1.440;2023-02-15T03:52:30;8.50;99.90
35635;DHT22;21757;43.610;1.440;2023-02-15T03:54:57;8.40;99.90
35635;DHT22;21757;43.610;1.440;2023-02-15T03:57:28;8.40;99.90
35635;DHT22;21757;43.610;1.440;2023-02-15T04:00:21;8.40;99.90
35635;DHT22;21757;43.610;1.440;2023-02-15T04:05:48;8.30;99.90
35635;DHT22;21757;43.610;1.440;2023-02-15T04:08:13;8.30;99.90
35635;DHT22;21757;43.610;1.440;2023-02-15T04:10:39;8.20;99.90
35635;DHT22;21757;43.610;1.440;2023-02-15T04:13:29;8.20;99.90
35635;DHT22;21757;43.610;1.440;2023-02-15T04:15:55;8.20;99.90
35635;DHT22;21757;43.610;1.440;2023-02-15T04:18:30;8.20;99.90
35635;DHT22;21757;43.610;1.440;2023-02-15T04:21:14;8.20;99.90
35635;DHT22;21757;43.610;1.440;2023-02-15T04:23:59;8.20;99.90
35635;DHT22;21757;43.610;1.440;2023-02-15T04:26:43;8.20;99.90
35635;DHT22;21757;43.610;1.440;2023-02-15T04:29:08;8.20;99.90
35635;DHT22;21757;43.610;1.440;2023-02-15T04:31:34;8.10;99.90
35635;DHT22;21757;43.610;1.440;2023-02-15T04:34:00;8.20;99.90
35635;DHT22;21757;43.610;1.440;2023-02-15T04:36:26;8.10;99.90
35635;DHT22;21757;43.610;1.440;2023-02-15T04:38:51;8.10;99.90
35635;DHT22;21757;43.610;1.440;2023-02-15T04:41:17;8.00;99.90
35635;DHT22;21757;43.610;1.440;2023-02-15T04:43:43;7.80;99.90
35635;DHT22;21757;43.610;1.440;2023-02-15T04:46:08;7.80;99.90
35635;DHT22;21757;43.610;1.440;2023-02-15T04:48:34;7.70;99.90
35635;DHT22;21757;43.610;1.440;2023-02-15T04:51:05;7.60;99.90
35635;DHT22;21757;43.610;1.440;2023-02-15T04:53:31;7.50;99.90
35635;DHT22;21757;43.610;1.440;2023-02-15T04:55:57;7.50;99.90
35635;DHT22;21757;43.610;1.440;2023-02-15T04:58:23;7.50;99.90
35635;DHT22;21757;43.610;1.440;2023-02-15T05:00:48;7.40;99.90
35635;DHT22;21757;43.610;1.440;2023-02-15T05:03:14;7.40;99.90
35635;DHT22;21757;43.610;1.440;2023-02-15T05:05:40;7.30;99.90
35635;DHT22;21757;43.610;1.440;2023-02-15T05:08:06;7.30;99.90
35635;DHT22;21757;43.610;1.440;2023-02-15T05:10:31;7.30;99.90
35635;DHT22;21757;43.610;1.440;2023-02-15T05:12:57;7.30;99.90
35635;DHT22;21757;43.610;1.440;2023-02-15T05:15:22;7.20;99.90
35635;DHT22;21757;43.610;1.440;2023-02-15T05:17:48;7.20;99.90
35635;DHT22;21757;43.610;1.440;2023-02-15T05:20:15;7.20;99.90
35635;DHT22;21757;43.610;1.440;2023-02-15T05:22:40;7.10;99.90
35635;DHT22;21757;43.610;1.440;2023-02-15T05:25:08;7.10;99.90
35635;DHT22;21757;43.610;1.440;2023-02-15T05:27:52;7.10;99.90
35635;DHT22;21757;43.610;1.440;2023-02-15T05:30:36;7.00;99.90
35635;DHT22;21757;43.610;1.440;2023-02-15T05:33:02;7.00;99.90
35635;DHT22;21757;43.610;1.440;2023-02-15T05:35:27;7.00;99.90
35635;DHT22;21757;43.610;1.440;2023-02-15T05:37:53;6.90;99.90
35635;DHT22;21757;43.610;1.440;2023-02-15T05:40:19;6.90;99.90
35635;DHT22;21757;43.610;1.440;2023-02-15T05:42:44;6.80;99.90
35635;DHT22;21757;43.610;1.440;2023-02-15T05:45:10;6.90;99.90
35635;DHT22;21757;43.610;1.440;2023-02-15T05:47:36;6.70;99.90
35635;DHT22;21757;43.610;1.440;2023-02-15T05:50:01;6.70;99.90
35635;DHT22;21757;43.610;1.440;2023-02-15T05:52:27;6.70;99.90
35635;DHT22;21757;43.610;1.440;2023-02-15T05:54:53;6.70;99.90
35635;DHT22;21757;43.610;1.440;2023-02-15T05:57:19;6.80;99.90
35635;DHT22;21757;43.610;1.440;2023-02-15T05:59:45;6.80;99.90
35635;DHT22;21757;43.610;1.440;2023-02-15T06:02:10;6.80;99.90
35635;DHT22;21757;43.610;1.440;2023-02-15T06:04:36;6.80;99.90
35635;DHT22;21757;43.610;1.440;2023-02-15T06:07:02;6.90;99.90
35635;DHT22;21757;43.610;1.440;2023-02-15T06:09:28;7.20;99.90
35635;DHT22;21757;43.610;1.440;2023-02-15T06:11:53;7.50;99.90
35635;DHT22;21757;43.610;1.440;2023-02-15T06:14:19;7.70;99.90
35635;DHT22;21757;43.610;1.440;2023-02-15T06:16:44;7.80;99.90
35635;DHT22;21757;43.610;1.440;2023-02-15T06:19:10;7.90;99.90
35635;DHT22;21757;43.610;1.440;2023-02-15T06:21:36;7.90;99.90
35635;DHT22;21757;43.610;1.440;2023-02-15T06:24:02;8.00;99.90
35635;DHT22;21757;43.610;1.440;2023-02-15T06:26:27;8.00;99.90
35635;DHT22;21757;43.610;1.440;2023-02-15T06:28:53;8.00;99.90
35635;DHT22;21757;43.610;1.440;2023-02-15T06:31:19;8.00;99.90
35635;DHT22;21757;43.610;1.440;2023-02-15T06:33:45;8.00;99.90
35635;DHT22;21757;43.610;1.440;2023-02-15T06:36:10;8.10;99.90
35635;DHT22;21757;43.610;1.440;2023-02-15T06:38:38;8.10;99.90
35635;DHT22;21757;43.610;1.440;2023-02-15T06:41:03;8.10;99.90
35635;DHT22;21757;43.610;1.440;2023-02-15T06:43:29;8.20;99.90
35635;DHT22;21757;43.610;1.440;2023-02-15T06:45:55;8.20;99.90
35635;DHT22;21757;43.610;1.440;2023-02-15T06:48:20;8.20;99.90
35635;DHT22;21757;43.610;1.440;2023-02-15T06:50:46;8.20;99.90
35635;DHT22;21757;43.610;1.440;2023-02-15T06:53:12;8.20;99.90
35635;DHT22;21757;43.610;1.440;2023-02-15T06:55:37;8.30;99.90
35635;DHT22;21757;43.610;1.440;2023-02-15T06:58:03;8.30;99.90
35635;DHT22;21757;43.610;1.440;2023-02-15T07:00:29;8.30;99.90
35635;DHT22;21757;43.610;1.440;2023-02-15T07:02:55;8.30;99.90
35635;DHT22;21757;43.610;1.440;2023-02-15T07:05:22;8.30;99.90
35635;DHT22;21757;43.610;1.440;2023-02-15T07:07:48;8.40;99.90
35635;DHT22;21757;43.610;1.440;2023-02-15T07:10:13;8.50;99.90
35635;DHT22;21757;43.610;1.440;2023-02-15T07:12:39;8.50;99.90
35635;DHT22;21757;43.610;1.440;2023-02-15T07:15:09;8.60;99.90
35635;DHT22;21757;43.610;1.440;2023-02-15T07:17:36;8.60;99.90
35635;DHT22;21757;43.610;1.440;2023-02-15T07:20:04;8.70;99.90
35635;DHT22;21757;43.610;1.440;2023-02-15T07:22:30;8.70;99.90
35635;DHT22;21757;43.610;1.440;2023-02-15T07:24:56;8.80;99.90
35635;DHT22;21757;43.610;1.440;2023-02-15T07:27:22;8.90;99.90
35635;DHT22;21757;43.610;1.440;2023-02-15T07:29:48;9.00;99.90
35635;DHT22;21757;43.610;1.440;2023-02-15T07:32:13;9.00;99.90
35635;DHT22;21757;43.610;1.440;2023-02-15T07:34:40;9.10;99.90
35635;DHT22;21757;43.610;1.440;2023-02-15T07:37:06;9.10;99.90
35635;DHT22;21757;43.610;1.440;2023-02-15T07:39:31;9.20;99.90
35635;DHT22;21757;43.610;1.440;2023-02-15T07:41:57;9.30;99.90
35635;DHT22;21757;43.610;1.440;2023-02-15T07:44:24;9.30;99.90
35635;DHT22;21757;43.610;1.440;2023-02-15T07:46:50;9.30;99.90
35635;DHT22;21757;43.610;1.440;2023-02-15T07:49:16;9.30;99.90
35635;DHT22;21757;43.610;1.440;2023-02-15T07:51:41;9.40;99.90
35635;DHT22;21757;43.610;1.440;2023-02-15T07:54:07;9.40;99.90
35635;DHT22;21757;43.610;1.440;2023-02-15T07:56:33;9.40;99.90
35635;DHT22;21757;43.610;1.440;2023-02-15T07:58:59;9.50;99.90
35635;DHT22;21757;43.610;1.440;2023-02-15T08:01:31;9.50;99.90
35635;DHT22;21757;43.610;1.440;2023-02-15T08:03:58;9.50;99.90
35635;DHT22;21757;43.610;1.440;2023-02-15T08:06:26;9.50;99.90
35635;DHT22;21757;43.610;1.440;2023-02-15T08:08:52;9.50;99.90
35635;DHT22;21757;43.610;1.440;2023-02-15T08:11:32;9.50;99.90
35635;DHT22;21757;43.610;1.440;2023-02-15T08:14:21;9.60;99.90
35635;DHT22;21757;43.610;1.440;2023-02-15T08:16:53;9.60;99.90
35635;DHT22;21757;43.610;1.440;2023-02-15T08:19:28;9.70;99.90
35635;DHT22;21757;43.610;1.440;2023-02-15T08:21:56;9.70;99.90
35635;DHT22;21757;43.610;1.440;2023-02-15T08:24:30;9.70;99.90
35635;DHT22;21757;43.610;1.440;2023-02-15T08:26:56;9.80;99.90
35635;DHT22;21757;43.610;1.440;2023-02-15T08:29:25;9.90;99.90
35635;DHT22;21757;43.610;1.440;2023-02-15T08:31:57;9.90;99.90
35635;DHT22;21757;43.610;1.440;2023-02-15T08:34:24;9.90;99.90
35635;DHT22;21757;43.610;1.440;2023-02-15T08:36:50;9.90;99.90
35635;DHT22;21757;43.610;1.440;2023-02-15T08:39:16;9.90;99.90
35635;DHT22;21757;43.610;1.440;2023-02-15T08:41:44;10.00;99.90
35635;DHT22;21757;43.610;1.440;2023-02-15T08:44:10;10.00;99.90
35635;DHT22;21757;43.610;1.440;2023-02-15T08:46:42;10.10;99.90
35635;DHT22;21757;43.610;1.440;2023-02-15T08:49:08;10.20;99.90
35635;DHT22;21757;43.610;1.440;2023-02-15T08:51:36;10.20;99.90
35635;DHT22;21757;43.610;1.440;2023-02-15T08:54:05;10.30;99.90
35635;DHT22;21757;43.610;1.440;2023-02-15T08:56:37;10.30;99.90
35635;DHT22;21757;43.610;1.440;2023-02-15T08:59:04;10.40;99.90
35635;DHT22;21757;43.610;1.440;2023-02-15T09:01:32;10.50;99.90
35635;DHT22;21757;43.610;1.440;2023-02-15T09:04:03;10.60;99.90
35635;DHT22;21757;43.610;1.440;2023-02-15T09:06:31;10.60;99.90
35635;DHT22;21757;43.610;1.440;2023-02-15T09:08:56;10.70;99.90
35635;DHT22;21757;43.610;1.440;2023-02-15T09:11:24;10.70;99.90
35635;DHT22;21757;43.610;1.440;2023-02-15T09:14:00;10.70;99.90
35635;DHT22;21757;43.610;1.440;2023-02-15T09:16:29;10.80;99.90
35635;DHT22;21757;43.610;1.440;2023-02-15T09:18:55;10.80;99.90
35635;DHT22;21757;43.610;1.440;2023-02-15T09:21:23;10.80;99.90
35635;DHT22;21757;43.610;1.440;2023-02-15T09:23:55;10.90;99.90
35635;DHT22;21757;43.610;1.440;2023-02-15T09:26:22;10.90;99.90
35635;DHT22;21757;43.610;1.440;2023-02-15T09:28:51;10.90;99.90
35635;DHT22;21757;43.610;1.440;2023-02-15T09:31:19;10.90;99.90
35635;DHT22;21757;43.610;1.440;2023-02-15T09:33:47;10.90;99.90
35635;DHT22;21757;43.610;1.440;2023-02-15T09:36:27;11.00;99.90
35635;DHT22;21757;43.610;1.440;2023-02-15T09:38:58;11.10;99.90
35635;DHT22;21757;43.610;1.440;2023-02-15T09:55:19;11.70;99.90
35635;DHT22;21757;43.610;1.440;2023-02-15T10:00:37;11.80;99.90
35635;DHT22;21757;43.610;1.440;2023-02-15T10:06:14;11.90;99.90
35635;DHT22;21757;43.610;1.440;2023-02-15T10:09:01;11.90;99.90
35635;DHT22;21757;43.610;1.440;2023-02-15T10:28:56;12.10;99.90
35635;DHT22;21757;43.610;1.440;2023-02-15T10:31:28;12.20;99.90
35635;DHT22;21757;43.610;1.440;2023-02-15T10:34:15;12.50;99.90
35635;DHT22;21757;43.610;1.440;2023-02-15T10:37:05;12.60;99.90
35635;DHT22;21757;43.610;1.440;2023-02-15T10:48:45;12.70;99.90
35635;DHT22;21757;43.610;1.440;2023-02-15T10:50:56;12.80;99.90
35635;DHT22;21757;43.610;1.440;2023-02-15T10:53:38;12.80;99.90
35635;DHT22;21757;43.610;1.440;2023-02-15T10:56:52;12.90;99.90
35635;DHT22;21757;43.610;1.440;2023-02-15T11:07:54;13.20;99.90
35635;DHT22;21757;43.610;1.440;2023-02-15T11:10:25;13.20;99.90
35635;DHT22;21757;43.610;1.440;2023-02-15T11:12:52;13.30;99.90
35635;DHT22;21757;43.610;1.440;2023-02-15T11:15:23;13.20;99.90
35635;DHT22;21757;43.610;1.440;2023-02-15T11:17:56;13.30;99.90
35635;DHT22;21757;43.610;1.440;2023-02-15T11:22:52;13.50;99.90
35635;DHT22;21757;43.610;1.440;2023-02-15T11:25:29;13.60;99.90
35635;DHT22;21757;43.610;1.440;2023-02-15T11:27:56;13.70;99.90
35635;DHT22;21757;43.610;1.440;2023-02-15T11:30:25;13.70;99.90
35635;DHT22;21757;43.610;1.440;2023-02-15T11:32:58;13.60;99.90
35635;DHT22;21757;43.610;1.440;2023-02-15T11:35:47;13.70;99.90
35635;DHT22;21757;43.610;1.440;2023-02-15T11:38:23;14.00;99.90
35635;DHT22;21757;43.610;1.440;2023-02-15T11:40:55;14.10;99.90
35635;DHT22;21757;43.610;1.440;2023-02-15T11:45:54;13.90;99.90
35635;DHT22;21757;43.610;1.440;2023-02-15T11:48:20;14.10;99.90
35635;DHT22;21757;43.610;1.440;2023-02-15T11:50:46;14.30;99.90
35635;DHT22;21757;43.610;1.440;2023-02-15T11:53:17;14.20;99.90
35635;DHT22;21757;43.610;1.440;2023-02-15T11:55:45;14.00;99.90
35635;DHT22;21757;43.610;1.440;2023-02-15T11:58:33;13.80;99.90
35635;DHT22;21757;43.610;1.440;2023-02-15T12:01:18;13.80;99.90
35635;DHT22;21757;43.610;1.440;2023-02-15T12:03:50;13.70;99.90
35635;DHT22;21757;43.610;1.440;2023-02-15T12:06:29;13.70;99.90
35635;DHT22;21757;43.610;1.440;2023-02-15T12:11:37;13.70;99.90
35635;DHT22;21757;43.610;1.440;2023-02-15T12:14:06;13.90;99.90
35635;DHT22;21757;43.610;1.440;2023-02-15T12:16:49;14.00;99.90
35635;DHT22;21757;43.610;1.440;2023-02-15T12:19:36;14.10;99.90
35635;DHT22;21757;43.610;1.440;2023-02-15T12:22:04;14.10;99.90
35635;DHT22;21757;43.610;1.440;2023-02-15T12:24:34;14.10;99.90
35635;DHT22;21757;43.610;1.440;2023-02-15T12:27:20;14.10;99.90
35635;DHT22;21757;43.610;1.440;2023-02-15T12:30:51;14.30;99.90
35635;DHT22;21757;43.610;1.440;2023-02-15T12:35:47;14.40;99.90
35635;DHT22;21757;43.610;1.440;2023-02-15T12:38:24;14.60;99.90
35635;DHT22;21757;43.610;1.440;2023-02-15T12:41:05;14.50;99.90
35635;DHT22;21757;43.610;1.440;2023-02-15T12:43:45;14.50;99.90
35635;DHT22;21757;43.610;1.440;2023-02-15T12:46:25;14.50;99.90
35635;DHT22;21757;43.610;1.440;2023-02-15T12:49:18;14.50;99.90
35635;DHT22;21757;43.610;1.440;2023-02-15T12:51:57;14.60;99.90
35635;DHT22;21757;43.610;1.440;2023-02-15T12:56:50;14.60;99.90
35635;DHT22;21757;43.610;1.440;2023-02-15T12:59:18;14.70;99.90
35635;DHT22;21757;43.610;1.440;2023-02-15T13:01:48;14.70;99.90
35635;DHT22;21757;43.610;1.440;2023-02-15T13:04:28;14.70;99.90
35635;DHT22;21757;43.610;1.440;2023-02-15T13:07:00;14.70;99.90
35635;DHT22;21757;43.610;1.440;2023-02-15T13:11:57;14.90;99.90
35635;DHT22;21757;43.610;1.440;2023-02-15T13:14:34;14.90;99.90
35635;DHT22;21757;43.610;1.440;2023-02-15T13:17:03;15.00;99.90
35635;DHT22;21757;43.610;1.440;2023-02-15T13:22:10;14.90;99.90
35635;DHT22;21757;43.610;1.440;2023-02-15T13:24:42;14.90;99.90
35635;DHT22;21757;43.610;1.440;2023-02-15T13:27:14;14.80;99.90
35635;DHT22;21757;43.610;1.440;2023-02-15T13:29:50;14.80;99.90
35635;DHT22;21757;43.610;1.440;2023-02-15T13:34:59;14.70;99.90
35635;DHT22;21757;43.610;1.440;2023-02-15T13:37:57;14.80;99.90
35635;DHT22;21757;43.610;1.440;2023-02-15T13:40:46;14.70;99.90
35635;DHT22;21757;43.610;1.440;2023-02-15T13:51:43;14.90;99.90
35635;DHT22;21757;43.610;1.440;2023-02-15T14:13:55;14.90;99.90
35635;DHT22;21757;43.610;1.440;2023-02-15T14:16:30;14.90;99.90
35635;DHT22;21757;43.610;1.440;2023-02-15T14:22:00;15.00;99.90
35635;DHT22;21757;43.610;1.440;2023-02-15T14:24:42;15.00;99.90
35635;DHT22;21757;43.610;1.440;2023-02-15T14:27:27;15.10;99.90
35635;DHT22;21757;43.610;1.440;2023-02-15T14:30:13;15.00;99.90
35635;DHT22;21757;43.610;1.440;2023-02-15T14:32:46;15.10;99.90
35635;DHT22;21757;43.610;1.440;2023-02-15T14:35:16;15.10;99.90
35635;DHT22;21757;43.610;1.440;2023-02-15T14:40:57;15.20;99.90
35635;DHT22;21757;43.610;1.440;2023-02-15T14:46:24;15.10;99.90
35635;DHT22;21757;43.610;1.440;2023-02-15T14:49:05;15.10;99.90
35635;DHT22;21757;43.610;1.440;2023-02-15T14:59:45;15.20;99.90
35635;DHT22;21757;43.610;1.440;2023-02-15T15:02:17;15.20;99.90
35635;DHT22;21757;43.610;1.440;2023-02-15T15:05:11;15.10;99.90
35635;DHT22;21757;43.610;1.440;2023-02-15T15:07:55;15.00;99.90
35635;DHT22;21757;43.610;1.440;2023-02-15T15:12:54;15.10;99.90
35635;DHT22;21757;43.610;1.440;2023-02-15T15:18:04;15.20;99.90
35635;DHT22;21757;43.610;1.440;2023-02-15T15:31:22;15.00;99.90
35635;DHT22;21757;43.610;1.440;2023-02-15T15:48:35;15.00;99.90
35635;DHT22;21757;43.610;1.440;2023-02-15T15:51:30;14.80;99.90
35635;DHT22;21757;43.610;1.440;2023-02-15T15:53:57;14.80;99.90
35635;DHT22;21757;43.610;1.440;2023-02-15T15:56:44;14.70;99.90
35635;DHT22;21757;43.610;1.440;2023-02-15T15:59:23;14.60;99.90
35635;DHT22;21757;43.610;1.440;2023-02-15T16:01:50;14.60;99.90
35635;DHT22;21757;43.610;1.440;2023-02-15T16:04:42;14.50;99.90
35635;DHT22;21757;43.610;1.440;2023-02-15T16:09:39;14.40;99.90
35635;DHT22;21757;43.610;1.440;2023-02-15T16:12:15;14.30;99.90
35635;DHT22;21757;43.610;1.440;2023-02-15T16:14:44;14.20;99.90
35635;DHT22;21757;43.610;1.440;2023-02-15T16:17:26;14.20;99.90
35635;DHT22;21757;43.610;1.440;2023-02-15T16:19:59;14.20;99.90
35635;DHT22;21757;43.610;1.440;2023-02-15T16:22:27;14.10;99.90
35635;DHT22;21757;43.610;1.440;2023-02-15T16:28:06;14.10;99.90
35635;DHT22;21757;43.610;1.440;2023-02-15T16:30:34;14.10;99.90
35635;DHT22;21757;43.610;1.440;2023-02-15T16:33:16;14.00;99.90
35635;DHT22;21757;43.610;1.440;2023-02-15T16:35:59;13.90;99.90
35635;DHT22;21757;43.610;1.440;2023-02-15T16:41:12;13.80;99.90
35635;DHT22;21757;43.610;1.440;2023-02-15T16:43:40;13.70;99.90
35635;DHT22;21757;43.610;1.440;2023-02-15T16:46:14;13.60;99.90
35635;DHT22;21757;43.610;1.440;2023-02-15T16:48:46;13.60;99.90
35635;DHT22;21757;43.610;1.440;2023-02-15T16:51:40;13.50;99.90
35635;DHT22;21757;43.610;1.440;2023-02-15T16:54:17;13.40;99.90
35635;DHT22;21757;43.610;1.440;2023-02-15T16:56:45;13.30;99.90
35635;DHT22;21757;43.610;1.440;2023-02-15T16:59:40;13.20;99.90
35635;DHT22;21757;43.610;1.440;2023-02-15T17:02:20;13.20;99.90
35635;DHT22;21757;43.610;1.440;2023-02-15T17:05:05;13.10;99.90
35635;DHT22;21757;43.610;1.440;2023-02-15T17:07:32;13.00;99.90
35635;DHT22;21757;43.610;1.440;2023-02-15T17:09:59;12.80;99.90
35635;DHT22;21757;43.610;1.440;2023-02-15T17:12:44;12.80;99.90
35635;DHT22;21757;43.610;1.440;2023-02-15T17:15:30;12.80;99.90
35635;DHT22;21757;43.610;1.440;2023-02-15T17:18:05;12.70;99.90
35635;DHT22;21757;43.610;1.440;2023-02-15T17:20:32;12.70;99.90
35635;DHT22;21757;43.610;1.440;2023-02-15T17:22:59;12.70;99.90
35635;DHT22;21757;43.610;1.440;2023-02-15T17:25:39;12.60;99.90
35635;DHT22;21757;43.610;1.440;2023-02-15T17:28:06;12.50;99.90
35635;DHT22;21757;43.610;1.440;2023-02-15T17:30:40;12.50;99.90
35635;DHT22;21757;43.610;1.440;2023-02-15T17:36:19;12.30;99.90
35635;DHT22;21757;43.610;1.440;2023-02-15T17:41:26;12.20;99.90
35635;DHT22;21757;43.610;1.440;2023-02-15T17:43:52;12.10;99.90
35635;DHT22;21757;43.610;1.440;2023-02-15T17:46:18;12.00;99.90
35635;DHT22;21757;43.610;1.440;2023-02-15T17:48:49;11.90;99.90
35635;DHT22;21757;43.610;1.440;2023-02-15T17:51:16;11.80;99.90
35635;DHT22;21757;43.610;1.440;2023-02-15T17:53:42;11.80;99.90
35635;DHT22;21757;43.610;1.440;2023-02-15T17:56:35;11.80;99.90
35635;DHT22;21757;43.610;1.440;2023-02-15T17:59:01;11.70;99.90
35635;DHT22;21757;43.610;1.440;2023-02-15T18:01:47;11.70;99.90
35635;DHT22;21757;43.610;1.440;2023-02-15T18:04:32;11.60;99.90
35635;DHT22;21757;43.610;1.440;2023-02-15T18:07:19;11.50;99.90
35635;DHT22;21757;43.610;1.440;2023-02-15T18:10:15;11.50;99.90
35635;DHT22;21757;43.610;1.440;2023-02-15T18:13:00;11.50;99.90
35635;DHT22;21757;43.610;1.440;2023-02-15T18:15:26;11.50;99.90
35635;DHT22;21757;43.610;1.440;2023-02-15T18:17:52;11.50;99.90
35635;DHT22;21757;43.610;1.440;2023-02-15T18:20:19;11.40;99.90
35635;DHT22;21757;43.610;1.440;2023-02-15T18:22:45;11.40;99.90
35635;DHT22;21757;43.610;1.440;2023-02-15T18:25:16;11.40;99.90
35635;DHT22;21757;43.610;1.440;2023-02-15T18:27:42;11.30;99.90
35635;DHT22;21757;43.610;1.440;2023-02-15T18:30:16;11.30;99.90
35635;DHT22;21757;43.610;1.440;2023-02-15T18:32:44;11.20;99.90
35635;DHT22;21757;43.610;1.440;2023-02-15T18:35:17;11.20;99.90
35635;DHT22;21757;43.610;1.440;2023-02-15T18:37:44;11.20;99.90
35635;DHT22;21757;43.610;1.440;2023-02-15T18:40:22;11.10;99.90
35635;DHT22;21757;43.610;1.440;2023-02-15T18:42:49;11.10;99.90
35635;DHT22;21757;43.610;1.440;2023-02-15T18:45:17;11.10;99.90
35635;DHT22;21757;43.610;1.440;2023-02-15T18:47:44;11.00;99.90
35635;DHT22;21757;43.610;1.440;2023-02-15T18:50:15;10.90;99.90
35635;DHT22;21757;43.610;1.440;2023-02-15T18:52:43;10.80;99.90
35635;DHT22;21757;43.610;1.440;2023-02-15T18:55:28;10.80;99.90
35635;DHT22;21757;43.610;1.440;2023-02-15T18:57:55;10.80;99.90
35635;DHT22;21757;43.610;1.440;2023-02-15T19:00:26;10.80;99.90
35635;DHT22;21757;43.610;1.440;2023-02-15T19:02:53;10.70;99.90
35635;DHT22;21757;43.610;1.440;2023-02-15T19:05:19;10.70;99.90
35635;DHT22;21757;43.610;1.440;2023-02-15T19:07:47;10.70;99.90
35635;DHT22;21757;43.610;1.440;2023-02-15T19:10:20;10.60;99.90
35635;DHT22;21757;43.610;1.440;2023-02-15T19:12:48;10.60;99.90
35635;DHT22;21757;43.610;1.440;2023-02-15T19:15:34;10.50;99.90
35635;DHT22;21757;43.610;1.440;2023-02-15T19:18:00;10.50;99.90
35635;DHT22;21757;43.610;1.440;2023-02-15T19:20:41;10.50;99.90
35635;DHT22;21757;43.610;1.440;2023-02-15T19:23:20;10.40;99.90